Time;durP1;ratioP1;P1;durP2;ratioP2;P2;SDS_P1;SDS_P2;PMS_P1;PMS_P2;Temp;Humidity;BMP_temperature;BMP_pressure;BME280_temperature;BME280_humidity;BME280_pressure;Samples;Min_cycle;Max_cycle;Signal;HPM_P1;HPM_P2
2023/02/02 00:00:01;;;;;;;;;;;;;;;10.70;67.79;101745.94;1265989;23;672;-69
2023/02/02 00:00:51;;;;;;;;;;;;;;;10.70;68.08;101746.81;1266058;23;753;-68
2023/02/02 00:01:42;;;;;;;;;;;;;;;10.71;68.36;101739.69;1266608;23;633;-69
2023/02/02 00:02:32;;;;;;;;;;;;;;;10.71;68.18;101747.66;1264641;23;630;-69
2023/02/02 00:03:22;;;;;;;;;;;;;;;10.72;68.00;101746.72;1266628;23;594;-68
2023/02/02 00:04:13;;;;;;;;;;;;;;;10.74;68.27;101750.19;1264534;23;650;-68
2023/02/02 00:05:03;;;;;;;;;;;;;;;10.72;67.81;101746.72;1266544;23;641;-69
2023/02/02 00:05:54;;;;;;;;;;;;;;;10.72;68.48;101747.59;1265921;23;671;-69
2023/02/02 00:06:44;;;;;;;;;;;;;;;10.72;68.44;101742.25;1266594;23;653;-68
2023/02/02 00:07:35;;;;;;;;;;;;;;;10.71;68.43;101743.22;1264619;23;619;-69
2023/02/02 00:08:25;;;;;;;;;;;;;;;10.73;68.62;101746.66;1266545;23;641;-68
2023/02/02 00:09:16;;;;;;;;;;;;;;;10.73;67.93;101746.66;1266081;23;689;-68
2023/02/02 00:10:06;;;;;;;;;;;;;;;10.74;68.08;101752.84;1263890;23;598;-69
2023/02/02 00:10:57;;;;;;;;;;;;;;;10.73;68.23;101744.00;1265993;23;649;-68
2023/02/02 00:11:47;;;;;;;;;;;;;;;10.72;68.39;101750.25;1263985;23;670;-68
2023/02/02 00:12:38;;;;;;;;;;;;;;;10.72;68.16;101750.25;1265840;23;651;-69
2023/02/02 00:13:28;;;;;;;;;;;;;;;10.74;68.17;101744.84;1264590;23;654;-68
2023/02/02 00:14:18;;;;;;;;;;;;;;;10.73;68.46;101751.13;1264081;23;634;-68
2023/02/02 00:15:09;;;;;;;;;;;;;;;10.74;68.40;101753.72;1266049;23;626;-68
2023/02/02 00:15:59;;;;;;;;;;;;;;;10.74;67.85;101753.72;1266553;23;649;-68
2023/02/02 00:16:50;;;;;;;;;;;;;;;10.73;68.54;101752.00;1265992;23;657;-68
2023/02/02 00:17:40;;;;;;;;;;;;;;;10.74;68.24;101747.53;1266439;23;634;-68
2023/02/02 00:18:31;;;;;;;;;;;;;;;10.74;68.40;101751.06;1265878;23;638;-68
2023/02/02 00:19:21;;;;;;;;;;;;;;;10.73;68.30;101752.00;1266088;23;634;-68
2023/02/02 00:20:12;;;;;;;;;;;;;;;10.74;68.50;101745.72;1265906;23;657;-68
2023/02/02 00:21:02;;;;;;;;;;;;;;;10.74;67.92;101758.19;1263912;23;638;-68
2023/02/02 00:21:53;;;;;;;;;;;;;;;10.74;68.02;101755.53;1265928;23;881;-68
2023/02/02 00:22:43;;;;;;;;;;;;;;;10.74;67.77;101753.72;1266040;23;658;-68
2023/02/02 00:23:33;;;;;;;;;;;;;;;10.74;68.17;101751.06;1265876;23;662;-68
2023/02/02 00:24:24;;;;;;;;;;;;;;;10.75;67.69;101746.56;1265910;23;645;-68
2023/02/02 00:25:14;;;;;;;;;;;;;;;10.75;68.02;101752.75;1264060;23;658;-68
2023/02/02 00:26:05;;;;;;;;;;;;;;;10.74;68.08;101748.38;1264773;23;669;-68
2023/02/02 00:26:55;;;;;;;;;;;;;;;10.75;67.79;101750.09;1267230;23;634;-68
2023/02/02 00:27:46;;;;;;;;;;;;;;;10.74;68.11;101742.19;1267579;23;667;-69
2023/02/02 00:28:36;;;;;;;;;;;;;;;10.75;68.59;101750.09;1266013;23;614;-68
2023/02/02 00:29:27;;;;;;;;;;;;;;;10.75;68.36;101744.75;1264292;23;618;-68
2023/02/02 00:30:17;;;;;;;;;;;;;;;10.76;68.54;101749.13;1266009;23;642;-68
2023/02/02 00:31:07;;;;;;;;;;;;;;;10.76;67.98;101751.81;1265843;23;631;-68
2023/02/02 00:31:58;;;;;;;;;;;;;;;10.76;68.05;101743.81;1264366;23;645;-68
2023/02/02 00:32:51;;;;;;;;;;;;;;;10.75;68.32;101752.75;1266628;23;620;-68
2023/02/02 00:33:41;;;;;;;;;;;;;;;10.77;68.66;101748.19;1266119;23;677;-69
2023/02/02 00:34:31;;;;;;;;;;;;;;;10.78;68.49;101744.59;1266646;23;645;-68
2023/02/02 00:35:22;;;;;;;;;;;;;;;10.79;68.18;101757.00;1265851;23;657;-66
2023/02/02 00:36:12;;;;;;;;;;;;;;;10.82;68.41;101755.97;1266636;23;598;-68
2023/02/02 00:37:03;;;;;;;;;;;;;;;10.83;68.32;101760.38;1265776;23;614;-68
2023/02/02 00:37:53;;;;;;;;;;;;;;;10.83;68.53;101762.16;1266152;23;606;-69
2023/02/02 00:38:44;;;;;;;;;;;;;;;10.81;68.47;101759.56;1265755;23;614;-68
2023/02/02 00:39:34;;;;;;;;;;;;;;;10.82;68.95;101760.44;1265390;23;1936;-68
2023/02/02 00:40:24;;;;;;;;;;;;;;;10.80;68.55;101763.19;1265720;23;649;-68
2023/02/02 00:41:15;;;;;;;;;;;;;;;10.79;68.04;101762.31;1265921;23;626;-69
2023/02/02 00:42:05;;;;;;;;;;;;;;;10.78;68.13;101765.94;1266715;23;619;-69
2023/02/02 00:42:56;;;;;;;;;;;;;;;10.79;68.82;101764.13;1265884;23;649;-68
2023/02/02 00:45:14;;;;;;;;;;;;;;;10.79;68.40;101762.31;1266537;23;628;-69
2023/02/02 00:45:14;;;;;;;;;;;;;;;10.80;68.58;101755.19;1263937;23;764;-69
2023/02/02 00:46:05;;;;;;;;;;;;;;;10.82;68.31;101755.13;1265941;23;728;-69
2023/02/02 00:46:55;;;;;;;;;;;;;;;10.79;68.52;101759.66;1266491;23;656;-69
2023/02/02 00:47:46;;;;;;;;;;;;;;;10.81;68.73;101764.06;1264218;23;645;-68
2023/02/02 00:48:36;;;;;;;;;;;;;;;10.81;68.77;101761.38;1265934;23;674;-68
2023/02/02 00:49:26;;;;;;;;;;;;;;;10.83;68.80;101759.50;1264532;23;681;-68
2023/02/02 00:50:18;;;;;;;;;;;;;;;10.82;68.54;101761.31;1267176;23;693;-68
2023/02/02 00:51:08;;;;;;;;;;;;;;;10.81;68.27;101758.72;1265979;23;627;-69
2023/02/02 00:51:59;;;;;;;;;;;;;;;10.81;68.47;101762.25;1265829;23;622;-68
2023/02/02 00:52:49;;;;;;;;;;;;;;;10.82;68.71;101760.44;1265681;23;629;-68
2023/02/02 00:53:40;;;;;;;;;;;;;;;10.81;68.15;101759.56;1265575;23;625;-68
2023/02/02 00:54:30;;;;;;;;;;;;;;;10.81;68.72;101761.38;1264660;23;634;-68
2023/02/02 00:55:21;;;;;;;;;;;;;;;10.81;68.18;101750.72;1266691;23;815;-68
2023/02/02 00:56:11;;;;;;;;;;;;;;;10.82;68.02;101755.97;1264427;23;654;-68
2023/02/02 00:57:01;;;;;;;;;;;;;;;10.82;68.11;101763.09;1265711;23;630;-68
2023/02/02 00:57:52;;;;;;;;;;;;;;;10.82;69.05;101755.97;1265846;23;629;-68
2023/02/02 00:58:42;;;;;;;;;;;;;;;10.83;68.96;101759.50;1266375;23;688;-68
2023/02/02 00:59:33;;;;;;;;;;;;;;;10.84;68.84;101763.91;1265924;23;1960;-68
2023/02/02 01:00:23;;;;;;;;;;;;;;;10.83;68.60;101760.38;1266005;23;638;-68
2023/02/02 01:01:14;;;;;;;;;;;;;;;10.83;68.86;101755.03;1265771;23;747;-68
2023/02/02 01:02:04;;;;;;;;;;;;;;;10.84;68.75;101763.91;1264347;23;614;-68
2023/02/02 01:02:56;;;;;;;;;;;;;;;10.84;68.90;101761.22;1264011;23;736;-68
2023/02/02 01:03:47;;;;;;;;;;;;;;;10.85;68.64;101762.97;1265984;23;605;-68
2023/02/02 01:04:37;;;;;;;;;;;;;;;10.85;68.86;101761.16;1267455;23;661;-68
2023/02/02 01:05:28;;;;;;;;;;;;;;;10.86;68.36;101767.34;1265871;23;602;-68
2023/02/02 01:06:18;;;;;;;;;;;;;;;10.87;68.25;101758.41;1265935;23;634;-68
2023/02/02 01:07:08;;;;;;;;;;;;;;;10.86;69.04;101764.69;1265730;23;642;-68
2023/02/02 01:07:59;;;;;;;;;;;;;;;10.85;68.58;101761.16;1265956;23;658;-68
2023/02/02 01:08:49;;;;;;;;;;;;;;;10.85;68.89;101762.97;1264094;23;655;-68
2023/02/02 01:09:40;;;;;;;;;;;;;;;10.87;68.58;101758.41;1265866;23;646;-68
2023/02/02 01:10:32;;;;;;;;;;;;;;;10.87;68.41;101766.41;1267421;23;692;-68
2023/02/02 01:11:24;;;;;;;;;;;;;;;10.86;69.09;101767.34;1265876;23;639;-68
2023/02/02 01:12:14;;;;;;;;;;;;;;;10.87;68.33;101772.59;1265569;23;626;-68
2023/02/02 01:13:05;;;;;;;;;;;;;;;10.87;68.61;101767.28;1264662;23;697;-68
2023/02/02 01:13:55;;;;;;;;;;;;;;;10.90;69.00;101766.25;1267118;23;648;-68
2023/02/02 01:14:46;;;;;;;;;;;;;;;10.89;68.62;101772.53;1267410;23;657;-68
2023/02/02 01:15:36;;;;;;;;;;;;;;;10.89;69.10;101768.06;1264515;23;670;-68
2023/02/02 01:16:26;;;;;;;;;;;;;;;10.89;69.24;101768.06;1263859;23;665;-68
2023/02/02 01:17:18;;;;;;;;;;;;;;;10.88;68.90;101765.47;1265926;23;1051;-68
2023/02/02 01:18:08;;;;;;;;;;;;;;;10.89;68.70;101772.53;1266040;23;622;-68
2023/02/02 01:18:59;;;;;;;;;;;;;;;10.88;69.01;101770.81;1265814;23;605;-68
2023/02/02 01:19:49;;;;;;;;;;;;;;;10.87;68.99;101769.06;1264833;23;1936;-68
2023/02/02 01:20:40;;;;;;;;;;;;;;;10.87;68.91;101774.41;1267062;23;576;-68
2023/02/02 01:21:30;;;;;;;;;;;;;;;10.87;69.13;101764.59;1266198;23;653;-68
2023/02/02 01:22:20;;;;;;;;;;;;;;;10.88;68.86;101777.00;1265670;23;610;-68
2023/02/02 01:23:11;;;;;;;;;;;;;;;10.88;68.41;101770.81;1265718;23;661;-68
2023/02/02 01:24:02;;;;;;;;;;;;;;;10.88;68.55;101776.13;1264183;23;629;-68
2023/02/02 01:24:52;;;;;;;;;;;;;;;10.88;68.97;101776.13;1265899;23;772;-68
2023/02/02 01:25:43;;;;;;;;;;;;;;;10.89;68.56;101769.88;1265679;23;641;-68
2023/02/02 01:26:33;;;;;;;;;;;;;;;10.88;68.89;101766.34;1264759;23;661;-68
2023/02/02 01:27:23;;;;;;;;;;;;;;;10.89;68.09;101770.72;1266997;23;605;-68
2023/02/02 01:28:14;;;;;;;;;;;;;;;10.89;68.54;101762.72;1265971;23;668;-68
2023/02/02 01:29:04;;;;;;;;;;;;;;;10.88;68.14;101763.66;1266020;23;622;-69
2023/02/02 01:29:55;;;;;;;;;;;;;;;10.88;68.19;101763.66;1265540;23;614;-69
2023/02/02 01:30:45;;;;;;;;;;;;;;;10.88;68.88;101755.66;1264419;23;685;-68
2023/02/02 01:31:35;;;;;;;;;;;;;;;10.89;68.25;101759.19;1266541;23;632;-68
2023/02/02 01:32:26;;;;;;;;;;;;;;;10.88;68.93;101760.13;1265927;23;704;-69
2023/02/02 01:33:16;;;;;;;;;;;;;;;10.88;68.86;101757.47;1265504;23;664;-69
2023/02/02 01:34:07;;;;;;;;;;;;;;;10.90;68.76;101763.59;1265931;23;808;-69
2023/02/02 01:34:57;;;;;;;;;;;;;;;10.89;68.32;101761.88;1265602;23;998;-69
2023/02/02 01:35:48;;;;;;;;;;;;;;;10.89;68.94;101761.88;1264106;23;665;-69
2023/02/02 01:36:38;;;;;;;;;;;;;;;10.90;68.55;101759.13;1264449;23;669;-69
2023/02/02 01:37:28;;;;;;;;;;;;;;;10.90;68.26;101761.78;1265928;23;681;-69
2023/02/02 01:38:19;;;;;;;;;;;;;;;10.90;68.44;101767.13;1264197;23;626;-69
2023/02/02 01:39:09;;;;;;;;;;;;;;;10.90;68.40;101766.25;1265601;23;618;-69
2023/02/02 01:40:00;;;;;;;;;;;;;;;10.89;68.65;101769.88;1264050;23;1936;-69
2023/02/02 01:40:50;;;;;;;;;;;;;;;10.90;68.86;101755.59;1265993;23;617;-69
2023/02/02 01:41:41;;;;;;;;;;;;;;;10.92;69.33;101761.72;1265687;23;586;-69
2023/02/02 01:42:31;;;;;;;;;;;;;;;10.93;69.24;101761.59;1266015;23;665;-69
2023/02/02 01:43:22;;;;;;;;;;;;;;;10.94;68.60;101766.00;1266549;23;629;-69
2023/02/02 01:44:12;;;;;;;;;;;;;;;10.95;69.27;101762.38;1265669;23;1202;-69
2023/02/02 01:45:03;;;;;;;;;;;;;;;10.96;68.79;101773.91;1266587;23;607;-69
2023/02/02 01:45:53;;;;;;;;;;;;;;;10.93;69.06;101764.28;1265822;23;692;-68
2023/02/02 01:46:43;;;;;;;;;;;;;;;10.94;68.68;101770.47;1263835;23;598;-69
2023/02/02 01:47:34;;;;;;;;;;;;;;;10.94;68.60;101767.81;1264162;23;733;-67
2023/02/02 01:48:24;;;;;;;;;;;;;;;10.94;68.57;101766.00;1265983;23;685;-67
2023/02/02 01:49:15;;;;;;;;;;;;;;;10.94;68.84;101767.81;1265670;23;637;-67
2023/02/02 01:50:05;;;;;;;;;;;;;;;10.94;68.24;101770.47;1264245;23;610;-67
2023/02/02 01:50:55;;;;;;;;;;;;;;;10.94;68.41;101770.47;1265657;23;637;-68
2023/02/02 01:51:46;;;;;;;;;;;;;;;10.94;69.08;101765.13;1265238;23;649;-67
2023/02/02 01:52:36;;;;;;;;;;;;;;;10.94;69.07;101770.47;1266455;23;653;-67
2023/02/02 01:53:27;;;;;;;;;;;;;;;10.93;68.96;101774.06;1264130;23;654;-67
2023/02/02 01:54:17;;;;;;;;;;;;;;;10.92;68.18;101775.91;1265774;23;682;-67
2023/02/02 01:55:08;;;;;;;;;;;;;;;10.94;68.46;101775.81;1265676;23;650;-67
2023/02/02 01:55:58;;;;;;;;;;;;;;;10.96;68.49;101773.91;1265788;23;617;-69
2023/02/02 01:56:48;;;;;;;;;;;;;;;10.95;69.07;101777.53;1265626;23;639;-69
2023/02/02 01:57:39;;;;;;;;;;;;;;;10.95;68.97;101774.88;1265774;23;590;-69
2023/02/02 01:58:29;;;;;;;;;;;;;;;10.95;68.29;101777.53;1263667;23;732;-68
2023/02/02 01:59:20;;;;;;;;;;;;;;;10.94;68.92;101770.47;1265730;23;642;-68
2023/02/02 02:00:10;;;;;;;;;;;;;;;10.93;68.54;101769.59;1265993;23;650;-68
2023/02/02 02:01:01;;;;;;;;;;;;;;;10.95;69.38;101766.84;1265708;23;638;-67
2023/02/02 02:01:51;;;;;;;;;;;;;;;10.94;68.48;101770.47;1264278;23;653;-68
2023/02/02 02:02:42;;;;;;;;;;;;;;;10.95;68.65;101772.19;1265496;23;653;-68
2023/02/02 02:03:33;;;;;;;;;;;;;;;10.98;69.22;101772.03;1264206;23;664;-68
2023/02/02 02:04:24;;;;;;;;;;;;;;;10.97;68.70;101765.84;1263877;23;587;-68
2023/02/02 02:05:14;;;;;;;;;;;;;;;11.00;69.03;101775.50;1265873;23;701;-68
2023/02/02 02:06:05;;;;;;;;;;;;;;;10.99;68.84;101771.97;1264366;23;679;-68
2023/02/02 02:06:55;;;;;;;;;;;;;;;10.98;69.35;101762.22;1267062;23;692;-68
2023/02/02 02:07:45;;;;;;;;;;;;;;;11.01;69.43;101766.56;1267316;23;649;-70
2023/02/02 02:08:36;;;;;;;;;;;;;;;11.01;69.00;101766.56;1265641;23;626;-70
2023/02/02 02:09:26;;;;;;;;;;;;;;;11.01;69.27;101761.22;1264442;23;662;-70
2023/02/02 02:10:17;;;;;;;;;;;;;;;11.01;69.16;101755.88;1265654;23;650;-70
2023/02/02 02:11:07;;;;;;;;;;;;;;;11.01;69.16;101755.88;1265815;23;654;-70
2023/02/02 02:11:58;;;;;;;;;;;;;;;11.01;68.65;101755.88;1263824;23;649;-70
2023/02/02 02:12:48;;;;;;;;;;;;;;;10.99;69.48;101763.97;1264553;23;677;-70
2023/02/02 02:17:07;;;;;;;;;;;;;;;10.98;69.32;101756.91;1266364;23;630;-69
2023/02/02 02:17:58;;;;;;;;;;;;;;;10.99;68.73;101757.75;1263931;23;747;-70
2023/02/02 02:18:48;;;;;;;;;;;;;;;10.98;69.11;101758.72;1265867;23;692;-69
2023/02/02 02:26:32;;;;;;;;;;;;;;;10.98;68.78;101756.91;1265457;23;1889;-69
2023/02/02 02:26:38;;;;;;;;;;;;;;;11.02;68.75;101753.13;1266630;23;595;-66
2023/02/02 02:27:28;;;;;;;;;;;;;;;11.03;69.38;101751.34;1265528;23;606;-67
2023/02/02 02:28:19;;;;;;;;;;;;;;;11.03;69.15;101754.88;1265552;23;626;-69
2023/02/02 02:29:09;;;;;;;;;;;;;;;11.01;69.51;101750.56;1265918;23;683;-68
2023/02/02 02:30:00;;;;;;;;;;;;;;;11.03;68.74;101748.66;1265694;23;649;-68
2023/02/02 02:30:50;;;;;;;;;;;;;;;11.03;68.96;101759.34;1264517;23;615;-68
2023/02/02 02:31:41;;;;;;;;;;;;;;;11.01;68.83;101754.06;1263828;23;642;-68
2023/02/02 02:32:32;;;;;;;;;;;;;;;11.01;68.85;101746.09;1265604;23;765;-68
2023/02/02 02:33:23;;;;;;;;;;;;;;;11.01;68.73;101746.09;1265623;23;614;-68
2023/02/02 02:34:13;;;;;;;;;;;;;;;11.02;68.78;101747.81;1265782;23;1166;-69
2023/02/02 02:35:03;;;;;;;;;;;;;;;11.01;68.93;101755.88;1263738;23;623;-68
2023/02/02 02:35:54;;;;;;;;;;;;;;;11.01;69.31;101745.22;1265551;23;645;-68
2023/02/02 02:36:44;;;;;;;;;;;;;;;11.01;68.88;101750.56;1265878;23;665;-69
2023/02/02 02:37:35;;;;;;;;;;;;;;;11.01;69.45;101753.22;1265662;23;582;-69
2023/02/02 02:38:25;;;;;;;;;;;;;;;11.01;69.19;101739.88;1265776;23;666;-68
2023/02/02 02:39:15;;;;;;;;;;;;;;;11.01;68.91;101745.22;1266360;23;627;-69
2023/02/02 02:40:06;;;;;;;;;;;;;;;11.03;68.73;101743.34;1265681;23;610;-69
2023/02/02 02:40:56;;;;;;;;;;;;;;;11.03;68.56;101735.34;1265385;23;661;-69
2023/02/02 02:41:47;;;;;;;;;;;;;;;11.02;68.95;101736.28;1264086;23;638;-69
2023/02/02 02:42:37;;;;;;;;;;;;;;;11.03;69.31;101743.34;1265914;23;626;-69
2023/02/02 02:43:28;;;;;;;;;;;;;;;11.02;68.86;101734.47;1265645;23;619;-69
2023/02/02 02:44:18;;;;;;;;;;;;;;;11.02;69.04;101736.28;1263946;23;1070;-69
2023/02/02 02:45:09;;;;;;;;;;;;;;;11.02;69.10;101733.59;1265550;23;682;-68
2023/02/02 02:45:59;;;;;;;;;;;;;;;11.03;69.12;101738.00;1264170;23;724;-68
2023/02/02 02:46:49;;;;;;;;;;;;;;;11.03;69.19;101738.00;1265500;23;646;-68
2023/02/02 02:47:40;;;;;;;;;;;;;;;11.04;68.43;101737.06;1265701;23;610;-68
2023/02/02 02:48:30;;;;;;;;;;;;;;;11.04;69.22;101740.59;1265752;23;640;-68
2023/02/02 02:49:21;;;;;;;;;;;;;;;11.04;69.17;101739.72;1266466;23;622;-68
2023/02/02 02:50:11;;;;;;;;;;;;;;;11.04;68.75;101740.59;1265736;23;622;-68
2023/02/02 02:51:02;;;;;;;;;;;;;;;11.04;68.71;101745.94;1265481;23;631;-69
2023/02/02 02:51:52;;;;;;;;;;;;;;;11.04;68.54;101745.06;1264231;23;1341;-69
2023/02/02 02:52:42;;;;;;;;;;;;;;;11.05;69.04;101752.13;1266309;23;606;-68
2023/02/02 02:53:33;;;;;;;;;;;;;;;11.05;68.45;101746.78;1265615;23;610;-69
2023/02/02 02:54:24;;;;;;;;;;;;;;;11.05;68.82;101746.78;1265437;23;630;-68
2023/02/02 02:55:14;;;;;;;;;;;;;;;11.04;68.70;101747.72;1265632;23;656;-68
2023/02/02 02:56:05;;;;;;;;;;;;;;;11.05;69.18;101736.13;1266260;23;616;-68
2023/02/02 02:56:55;;;;;;;;;;;;;;;11.05;68.74;101744.13;1267378;23;644;-68
2023/02/02 02:57:46;;;;;;;;;;;;;;;11.04;68.67;101750.41;1265593;23;645;-69
2023/02/02 02:58:36;;;;;;;;;;;;;;;11.04;68.71;101737.06;1265863;23;630;-68
2023/02/02 02:59:27;;;;;;;;;;;;;;;11.05;68.74;101747.66;1265555;23;602;-69
2023/02/02 03:00:17;;;;;;;;;;;;;;;11.04;68.59;101750.41;1265736;23;616;-69
2023/02/02 03:01:08;;;;;;;;;;;;;;;11.04;69.00;101742.41;1265487;23;641;-69
2023/02/02 03:01:58;;;;;;;;;;;;;;;11.04;69.04;101740.59;1265742;23;653;-68
2023/02/02 03:02:49;;;;;;;;;;;;;;;11.06;69.06;101749.38;1263720;23;634;-69
2023/02/02 03:03:40;;;;;;;;;;;;;;;11.05;68.32;101746.78;1265775;23;642;-68
2023/02/02 03:04:31;;;;;;;;;;;;;;;11.06;68.48;101753.84;1265028;23;634;-68
2023/02/02 03:05:21;;;;;;;;;;;;;;;11.06;68.58;101756.50;1265727;23;662;-69
2023/02/02 03:06:12;;;;;;;;;;;;;;;11.05;69.04;101755.66;1264258;23;618;-69
2023/02/02 03:07:02;;;;;;;;;;;;;;;11.05;68.28;101761.00;1266902;23;661;-69
2023/02/02 03:07:52;;;;;;;;;;;;;;;11.04;68.27;101761.06;1267259;23;649;-69
2023/02/02 03:08:43;;;;;;;;;;;;;;;11.03;68.66;101756.66;1263967;23;789;-68
2023/02/02 03:09:33;;;;;;;;;;;;;;;11.04;68.69;101761.94;1265839;23;657;-68
2023/02/02 03:10:24;;;;;;;;;;;;;;;11.06;68.63;101764.50;1265563;23;639;-68
2023/02/02 03:11:14;;;;;;;;;;;;;;;11.05;68.93;101753.00;1265707;23;677;-68
2023/02/02 03:12:05;;;;;;;;;;;;;;;11.05;68.52;101766.31;1265627;23;613;-68
2023/02/02 03:12:55;;;;;;;;;;;;;;;11.05;69.25;101769.00;1264243;23;672;-68
2023/02/02 03:13:46;;;;;;;;;;;;;;;11.05;68.63;101766.31;1266285;23;689;-69
2023/02/02 03:14:36;;;;;;;;;;;;;;;11.04;68.53;101769.06;1264482;23;665;-69
2023/02/02 03:15:26;;;;;;;;;;;;;;;11.05;69.06;101765.47;1266801;23;673;-69
2023/02/02 03:16:17;;;;;;;;;;;;;;;11.06;68.51;101764.50;1267375;23;613;-69
2023/02/02 03:17:07;;;;;;;;;;;;;;;11.06;68.75;101767.19;1265820;23;629;-69
2023/02/02 03:17:58;;;;;;;;;;;;;;;11.07;68.69;101772.44;1265588;23;642;-69
2023/02/02 03:18:48;;;;;;;;;;;;;;;11.06;68.29;101764.50;1265157;23;634;-69
2023/02/02 03:19:39;;;;;;;;;;;;;;;11.05;68.87;101771.66;1265419;23;1944;-69
2023/02/02 03:20:29;;;;;;;;;;;;;;;11.06;69.04;101765.38;1264099;23;626;-69
2023/02/02 03:21:19;;;;;;;;;;;;;;;11.05;68.96;101770.78;1264352;23;700;-69
2023/02/02 03:22:10;;;;;;;;;;;;;;;11.06;68.23;101772.53;1265632;23;637;-68
2023/02/02 03:23:00;;;;;;;;;;;;;;;11.07;68.79;101768.91;1264180;23;628;-69
2023/02/02 03:23:51;;;;;;;;;;;;;;;11.08;69.15;101765.31;1266331;23;727;-69
2023/02/02 03:24:41;;;;;;;;;;;;;;;11.07;68.99;101776.91;1265637;23;665;-69
2023/02/02 03:25:31;;;;;;;;;;;;;;;11.07;69.01;101775.13;1266214;23;665;-69
2023/02/02 03:26:22;;;;;;;;;;;;;;;11.07;68.62;101774.25;1263802;23;643;-69
2023/02/02 03:27:12;;;;;;;;;;;;;;;11.06;68.36;101776.06;1265792;23;677;-69
2023/02/02 03:28:03;;;;;;;;;;;;;;;11.08;68.14;101779.50;1266359;23;618;-69
2023/02/02 03:28:53;;;;;;;;;;;;;;;11.07;68.92;101774.25;1265883;23;661;-70
2023/02/02 03:29:44;;;;;;;;;;;;;;;11.07;68.31;101779.59;1266286;23;625;-69
2023/02/02 03:30:34;;;;;;;;;;;;;;;11.07;68.98;101777.78;1265595;23;643;-70
2023/02/02 03:31:25;;;;;;;;;;;;;;;11.07;68.79;101777.78;1265965;23;684;-70
2023/02/02 03:32:16;;;;;;;;;;;;;;;11.07;69.01;101774.25;1265499;23;598;-70
2023/02/02 03:33:06;;;;;;;;;;;;;;;11.07;68.65;101777.78;1264153;23;735;-70
2023/02/02 03:33:57;;;;;;;;;;;;;;;11.08;68.48;101775.97;1267410;23;700;-70
2023/02/02 03:34:47;;;;;;;;;;;;;;;11.08;69.03;101778.63;1265589;23;661;-71
2023/02/02 03:35:37;;;;;;;;;;;;;;;11.09;68.68;101769.69;1265454;23;662;-69
2023/02/02 03:36:28;;;;;;;;;;;;;;;11.10;69.30;101768.75;1263909;23;705;-70
2023/02/02 03:37:18;;;;;;;;;;;;;;;11.11;68.72;101773.13;1265857;23;673;-69
2023/02/02 03:38:09;;;;;;;;;;;;;;;11.12;68.63;101765.03;1265508;23;626;-69
2023/02/02 03:38:59;;;;;;;;;;;;;;;11.13;69.05;101768.56;1265760;23;669;-69
2023/02/02 03:39:50;;;;;;;;;;;;;;;11.13;68.74;101760.56;1265499;23;1956;-69
2023/02/02 03:40:40;;;;;;;;;;;;;;;11.13;68.86;101768.56;1265703;23;626;-69
2023/02/02 03:41:31;;;;;;;;;;;;;;;11.12;68.72;101759.69;1265446;23;669;-69
2023/02/02 03:42:21;;;;;;;;;;;;;;;11.12;69.33;101765.03;1265587;23;654;-69
2023/02/02 03:43:11;;;;;;;;;;;;;;;11.13;68.63;101766.75;1264440;23;645;-69
2023/02/02 03:44:02;;;;;;;;;;;;;;;11.12;69.01;101769.50;1265261;23;1059;-68
2023/02/02 03:44:52;;;;;;;;;;;;;;;11.14;68.79;101773.81;1266932;23;672;-68
2023/02/02 03:45:43;;;;;;;;;;;;;;;11.14;68.39;101764.97;1266874;23;649;-69
2023/02/02 03:46:34;;;;;;;;;;;;;;;11.14;68.70;101762.28;1267439;23;669;-69
2023/02/02 03:47:24;;;;;;;;;;;;;;;11.13;69.45;101765.91;1265591;23;618;-68
2023/02/02 03:48:14;;;;;;;;;;;;;;;11.11;69.01;101768.66;1266269;23;614;-68
2023/02/02 03:49:05;;;;;;;;;;;;;;;11.12;69.15;101766.84;1265554;23;628;-68
2023/02/02 03:49:55;;;;;;;;;;;;;;;11.12;68.60;101767.72;1264336;23;678;-68
2023/02/02 03:50:46;;;;;;;;;;;;;;;11.13;68.89;101766.75;1266313;23;685;-68
2023/02/02 03:51:36;;;;;;;;;;;;;;;11.13;68.79;101765.91;1265622;23;653;-69
2023/02/02 03:52:27;;;;;;;;;;;;;;;11.14;68.90;101764.97;1265445;23;889;-69
2023/02/02 03:53:17;;;;;;;;;;;;;;;11.13;68.45;101765.91;1265893;23;618;-69
2023/02/02 03:54:07;;;;;;;;;;;;;;;11.13;68.62;101766.75;1264760;23;662;-69
2023/02/02 03:54:58;;;;;;;;;;;;;;;11.14;69.05;101763.16;1265801;23;658;-69
2023/02/02 03:55:48;;;;;;;;;;;;;;;11.15;69.37;101766.69;1265085;23;665;-69
2023/02/02 03:56:39;;;;;;;;;;;;;;;11.15;68.80;101769.34;1266413;23;618;-69
2023/02/02 03:57:29;;;;;;;;;;;;;;;11.15;69.11;101764.03;1267754;23;622;-68
2023/02/02 03:58:21;;;;;;;;;;;;;;;11.14;68.42;101759.63;1266658;23;697;-68
2023/02/02 03:59:11;;;;;;;;;;;;;;;11.14;68.57;101763.16;1265929;23;602;-69
2023/02/02 04:00:01;;;;;;;;;;;;;;;11.16;68.60;101757.75;1264699;23;1908;-69
2023/02/02 04:00:54;;;;;;;;;;;;;;;11.14;69.36;101756.97;1265934;23;678;-69
2023/02/02 04:01:44;;;;;;;;;;;;;;;11.15;69.11;101758.69;1266283;23;641;-69
2023/02/02 04:02:35;;;;;;;;;;;;;;;11.14;68.77;101768.50;1266107;23;660;-69
2023/02/02 04:03:25;;;;;;;;;;;;;;;11.16;69.10;101764.88;1265839;23;688;-69
2023/02/02 04:04:16;;;;;;;;;;;;;;;11.16;68.60;101759.53;1266631;23;673;-69
2023/02/02 04:05:06;;;;;;;;;;;;;;;11.17;69.36;101767.47;1264316;23;618;-69
2023/02/02 04:05:56;;;;;;;;;;;;;;;11.16;69.12;101765.75;1266162;23;614;-69
2023/02/02 04:06:47;;;;;;;;;;;;;;;11.16;68.71;101771.09;1265868;23;658;-69
2023/02/02 04:07:37;;;;;;;;;;;;;;;11.16;69.26;101775.56;1264576;23;642;-69
2023/02/02 04:08:28;;;;;;;;;;;;;;;11.16;68.49;101762.22;1264608;23;678;-69
2023/02/02 04:09:18;;;;;;;;;;;;;;;11.16;68.93;101773.75;1266513;23;626;-69
2023/02/02 04:10:09;;;;;;;;;;;;;;;11.17;68.99;101769.28;1272284;23;637;-69
2023/02/02 04:10:59;;;;;;;;;;;;;;;11.16;69.02;101763.06;1266151;23;630;-69
2023/02/02 04:11:50;;;;;;;;;;;;;;;11.15;69.22;101764.03;1267581;23;641;-68
2023/02/02 04:12:40;;;;;;;;;;;;;;;11.15;68.26;101756.00;1264355;23;654;-69
2023/02/02 04:13:30;;;;;;;;;;;;;;;11.16;69.27;101765.75;1266051;23;628;-68
2023/02/02 04:14:21;;;;;;;;;;;;;;;11.16;68.26;101755.06;1265869;23;618;-69
2023/02/02 04:15:11;;;;;;;;;;;;;;;11.17;68.81;101758.59;1266069;23;653;-69
2023/02/02 04:16:02;;;;;;;;;;;;;;;11.16;68.38;101755.06;1266595;23;650;-69
2023/02/02 04:16:52;;;;;;;;;;;;;;;11.16;69.10;101755.06;1265449;23;633;-69
2023/02/02 04:17:42;;;;;;;;;;;;;;;11.16;68.34;101754.22;1266560;23;685;-69
2023/02/02 04:18:33;;;;;;;;;;;;;;;11.16;69.18;101760.41;1265891;23;629;-69
2023/02/02 04:19:23;;;;;;;;;;;;;;;11.15;69.05;101750.69;1266077;23;650;-69
2023/02/02 04:20:14;;;;;;;;;;;;;;;11.15;68.30;101753.34;1265766;23;634;-69
2023/02/02 04:21:04;;;;;;;;;;;;;;;11.17;68.88;101746.13;1265990;23;697;-69
2023/02/02 04:21:55;;;;;;;;;;;;;;;11.17;68.72;101754.13;1263929;23;629;-69
2023/02/02 04:22:45;;;;;;;;;;;;;;;11.18;68.71;101747.84;1265870;23;661;-69
2023/02/02 04:23:35;;;;;;;;;;;;;;;11.20;68.95;101747.78;1266092;23;630;-69
2023/02/02 04:24:26;;;;;;;;;;;;;;;11.19;69.07;101754.91;1265710;23;602;-69
2023/02/02 04:25:16;;;;;;;;;;;;;;;11.20;68.34;101742.44;1264581;23;751;-69
2023/02/02 04:26:07;;;;;;;;;;;;;;;11.20;68.31;101745.97;1265711;23;610;-69
2023/02/02 04:26:57;;;;;;;;;;;;;;;11.20;68.48;101758.44;1265992;23;685;-69
2023/02/02 04:27:48;;;;;;;;;;;;;;;11.19;68.25;101760.25;1265765;23;624;-69
2023/02/02 04:28:38;;;;;;;;;;;;;;;11.20;68.64;101755.78;1265891;23;642;-69
2023/02/02 04:29:28;;;;;;;;;;;;;;;11.21;69.28;101760.19;1265174;23;635;-69
2023/02/02 04:30:19;;;;;;;;;;;;;;;11.20;68.96;101751.31;1267072;23;661;-69
2023/02/02 04:31:09;;;;;;;;;;;;;;;11.19;68.34;101760.25;1267607;23;617;-69
2023/02/02 04:32:00;;;;;;;;;;;;;;;11.19;68.92;101764.72;1265851;23;631;-69
2023/02/02 04:32:51;;;;;;;;;;;;;;;11.18;68.66;101758.53;1264298;23;637;-69
2023/02/02 04:33:41;;;;;;;;;;;;;;;11.18;68.74;101761.19;1264238;23;622;-69
2023/02/02 04:34:31;;;;;;;;;;;;;;;11.17;68.36;101762.13;1265951;23;665;-69
2023/02/02 04:35:22;;;;;;;;;;;;;;;11.17;68.49;101767.47;1266576;23;626;-69
2023/02/02 04:36:12;;;;;;;;;;;;;;;11.19;68.93;101764.72;1265898;23;669;-69